Time;durP1;ratioP1;P1;durP2;ratioP2;P2;SDS_P1;SDS_P2;PMS_P1;PMS_P2;Temp;Humidity;BMP_temperature;BMP_pressure;BME280_temperature;BME280_humidity;BME280_pressure;Samples;Min_cycle;Max_cycle;Signal;HPM_P1;HPM_P2
2023/07/15 00:01:06;;;;;;;7.55;4.97;;;19.40;99.90;;;;;;5076594;28;20047;-58
2023/07/15 00:03:33;;;;;;;10.02;5.47;;;19.40;99.90;;;;;;5076820;28;20037;-58
2023/07/15 00:05:59;;;;;;;8.88;5.18;;;19.40;99.90;;;;;;5077208;28;20051;-59
2023/07/15 00:08:24;;;;;;;9.60;5.25;;;19.40;99.90;;;;;;5077122;28;20048;-59
2023/07/15 00:10:50;;;;;;;8.63;5.13;;;19.40;99.90;;;;;;5076550;28;20036;-59
2023/07/15 00:13:18;;;;;;;8.00;4.97;;;19.40;99.90;;;;;;5076270;28;20045;-58
2023/07/15 00:15:50;;;;;;;9.77;5.63;;;19.50;99.90;;;;;;5076600;28;20044;-59
2023/07/15 00:18:16;;;;;;;8.32;4.60;;;19.40;99.90;;;;;;5077985;28;20062;-58
2023/07/15 00:20:42;;;;;;;9.55;4.85;;;19.40;99.90;;;;;;5076039;28;20046;-59
2023/07/15 00:23:25;;;;;;;10.20;4.95;;;19.50;99.90;;;;;;5077544;28;20091;-59
2023/07/15 00:25:51;;;;;;;10.98;4.80;;;19.50;99.90;;;;;;5077326;28;20060;-58
2023/07/15 00:28:19;;;;;;;11.70;5.28;;;19.50;99.90;;;;;;5076725;28;20055;-58
2023/07/15 00:30:45;;;;;;;10.40;4.60;;;19.50;99.90;;;;;;5077587;28;20071;-59
2023/07/15 00:33:15;;;;;;;8.40;4.25;;;19.50;99.90;;;;;;5074375;28;20059;-59
2023/07/15 00:35:43;;;;;;;9.10;4.30;;;19.50;99.90;;;;;;5077697;28;20051;-58
2023/07/15 00:38:10;;;;;;;7.93;3.97;;;19.60;99.90;;;;;;5076393;28;20047;-59
2023/07/15 00:40:49;;;;;;;9.18;3.80;;;19.60;99.90;;;;;;5077349;28;20120;-59
2023/07/15 00:43:55;;;;;;;7.53;3.88;;;19.70;99.90;;;;;;5076031;28;20071;-58
2023/07/15 00:46:31;;;;;;;11.43;4.30;;;19.70;99.90;;;;;;5074633;28;20063;-59
2023/07/15 00:49:12;;;;;;;8.00;3.53;;;19.70;99.90;;;;;;5077237;28;20427;-59
2023/07/15 00:51:41;;;;;;;7.03;3.17;;;19.70;99.90;;;;;;5077203;28;20059;-59
2023/07/15 00:54:09;;;;;;;7.57;3.58;;;19.70;99.90;;;;;;5076200;28;20575;-59
2023/07/15 00:56:37;;;;;;;7.70;3.45;;;19.80;99.90;;;;;;5076999;28;20036;-59
2023/07/15 00:59:04;;;;;;;7.75;3.17;;;19.80;99.90;;;;;;5075874;28;20084;-59
2023/07/15 01:01:31;;;;;;;10.73;3.60;;;19.80;99.90;;;;;;5077350;28;20045;-59
2023/07/15 01:03:57;;;;;;;8.55;3.70;;;19.90;99.90;;;;;;5076622;28;20060;-59
2023/07/15 01:06:22;;;;;;;8.38;3.28;;;19.90;99.90;;;;;;5076499;28;20490;-59
2023/07/15 01:08:49;;;;;;;7.40;3.33;;;19.90;99.90;;;;;;5076865;28;20037;-59
2023/07/15 01:11:15;;;;;;;7.10;3.42;;;19.90;99.90;;;;;;5076084;28;20609;-58
2023/07/15 01:13:41;;;;;;;8.35;3.38;;;19.90;99.90;;;;;;5076814;28;20040;-59
2023/07/15 01:16:06;;;;;;;8.32;3.88;;;19.90;99.90;;;;;;5075551;28;20044;-59
2023/07/15 01:18:32;;;;;;;7.97;3.78;;;19.90;99.90;;;;;;5077529;28;20040;-59
2023/07/15 01:20:59;;;;;;;8.82;3.70;;;19.90;99.90;;;;;;5067210;28;20039;-59
2023/07/15 01:23:29;;;;;;;9.60;3.50;;;19.90;99.90;;;;;;5064385;28;20056;-59
2023/07/15 01:25:56;;;;;;;10.05;3.53;;;19.90;99.90;;;;;;5070946;28;20045;-58
2023/07/15 01:28:23;;;;;;;8.90;3.70;;;19.90;99.90;;;;;;5060113;28;20041;-59
2023/07/15 01:30:48;;;;;;;7.95;3.65;;;19.90;99.90;;;;;;5060955;28;20105;-59
2023/07/15 01:33:15;;;;;;;6.70;3.47;;;19.90;99.90;;;;;;5059680;28;20077;-59
2023/07/15 01:35:47;;;;;;;7.82;3.10;;;19.90;99.90;;;;;;5060736;28;20049;-59
2023/07/15 01:38:13;;;;;;;8.80;3.25;;;19.90;99.90;;;;;;5059725;28;20492;-59
2023/07/15 01:40:38;;;;;;;6.63;3.20;;;19.90;99.90;;;;;;5060213;28;20519;-59
2023/07/15 01:43:04;;;;;;;8.02;3.28;;;19.90;99.90;;;;;;5059045;28;20052;-56
2023/07/15 01:45:30;;;;;;;7.40;3.60;;;19.90;99.90;;;;;;5058446;28;20780;-56
2023/07/15 01:47:56;;;;;;;6.90;3.30;;;19.90;99.90;;;;;;5060941;28;20095;-59
2023/07/15 01:50:21;;;;;;;7.82;3.65;;;19.90;99.90;;;;;;5057405;28;20049;-59
2023/07/15 01:52:47;;;;;;;8.55;3.03;;;19.90;99.90;;;;;;5062362;28;20041;-59
2023/07/15 01:55:13;;;;;;;7.93;3.38;;;19.90;99.90;;;;;;5078675;28;20035;-59
2023/07/15 01:57:38;;;;;;;7.97;3.45;;;19.90;99.90;;;;;;5066632;28;20049;-59
2023/07/15 02:00:05;;;;;;;7.65;3.20;;;19.80;99.90;;;;;;5060220;28;20085;-59
2023/07/15 02:02:31;;;;;;;8.55;2.97;;;19.80;99.90;;;;;;5059610;28;20041;-59
2023/07/15 02:04:56;;;;;;;6.80;3.38;;;19.80;99.90;;;;;;5060015;28;20056;-59
2023/07/15 02:07:22;;;;;;;8.32;3.33;;;19.80;99.90;;;;;;5058567;28;20049;-59
2023/07/15 02:09:48;;;;;;;8.10;3.08;;;19.80;99.90;;;;;;5060458;28;20049;-59
2023/07/15 02:12:14;;;;;;;6.88;3.03;;;19.80;99.90;;;;;;5058577;28;20041;-59
2023/07/15 02:14:40;;;;;;;7.82;3.58;;;19.80;99.90;;;;;;5060083;28;20531;-59
2023/07/15 02:17:06;;;;;;;8.23;3.80;;;19.70;99.90;;;;;;5058214;28;20037;-58
2023/07/15 02:19:32;;;;;;;7.13;3.47;;;19.70;99.90;;;;;;5059349;28;20145;-59
2023/07/15 02:21:58;;;;;;;6.22;2.90;;;19.60;99.90;;;;;;5059950;28;20481;-58
2023/07/15 02:24:24;;;;;;;8.02;3.05;;;19.60;99.90;;;;;;5058642;28;20051;-59
2023/07/15 02:26:50;;;;;;;8.88;3.15;;;19.60;99.90;;;;;;5059928;28;20486;-59
2023/07/15 02:29:16;;;;;;;7.28;3.40;;;19.60;99.90;;;;;;5057402;28;20491;-59
2023/07/15 02:31:42;;;;;;;8.20;3.00;;;19.60;99.90;;;;;;5059438;28;20045;-59
2023/07/15 02:34:08;;;;;;;7.35;3.10;;;19.60;99.90;;;;;;5058384;28;20052;-59
2023/07/15 02:36:36;;;;;;;5.95;2.63;;;19.60;99.90;;;;;;5058844;28;20056;-59
2023/07/15 02:39:04;;;;;;;8.75;3.58;;;19.60;99.90;;;;;;5059606;28;20037;-59
2023/07/15 02:41:29;;;;;;;7.10;2.85;;;19.60;99.90;;;;;;5058092;28;20053;-59
2023/07/15 02:43:55;;;;;;;8.02;3.00;;;19.60;99.90;;;;;;5059624;28;20037;-59
2023/07/15 02:46:21;;;;;;;6.93;2.70;;;19.60;99.90;;;;;;5056862;28;20091;-59
2023/07/15 02:48:47;;;;;;;8.23;3.42;;;19.60;99.90;;;;;;5059097;28;20128;-59
2023/07/15 02:51:12;;;;;;;8.50;2.90;;;19.70;99.90;;;;;;5059177;28;20041;-59
2023/07/15 02:53:39;;;;;;;8.50;2.78;;;19.70;99.90;;;;;;5066859;28;20044;-59
2023/07/15 02:56:05;;;;;;;7.22;2.78;;;19.70;99.90;;;;;;5079415;28;20155;-59
2023/07/15 02:58:31;;;;;;;6.45;2.65;;;19.70;99.90;;;;;;5076637;28;20520;-60
2023/07/15 03:00:57;;;;;;;6.07;2.60;;;19.70;99.90;;;;;;5079542;28;20071;-59
2023/07/15 03:03:23;;;;;;;9.57;2.65;;;19.70;99.90;;;;;;5077833;28;20661;-59
2023/07/15 03:05:50;;;;;;;6.75;2.67;;;19.70;99.90;;;;;;5077865;28;20040;-61
2023/07/15 03:08:16;;;;;;;7.25;2.47;;;19.70;99.90;;;;;;5078214;28;20047;-59
2023/07/15 03:10:45;;;;;;;6.05;3.03;;;19.70;99.30;;;;;;5078438;28;20048;-59
2023/07/15 03:13:11;;;;;;;7.40;2.78;;;19.70;97.30;;;;;;5078794;28;20134;-59
2023/07/15 03:15:37;;;;;;;6.10;2.70;;;19.80;97.50;;;;;;5077797;28;20040;-59
2023/07/15 03:18:03;;;;;;;7.78;2.58;;;19.80;98.30;;;;;;5078966;28;20067;-60
2023/07/15 03:20:30;;;;;;;6.82;2.80;;;19.80;96.70;;;;;;5077718;28;20051;-59
2023/07/15 03:22:56;;;;;;;6.32;2.70;;;19.80;97.20;;;;;;5078883;28;20060;-60
2023/07/15 03:25:22;;;;;;;7.78;2.75;;;19.80;97.00;;;;;;5078043;28;20201;-59
2023/07/15 03:27:49;;;;;;;7.50;2.40;;;19.80;95.50;;;;;;5078345;28;20102;-60
2023/07/15 03:30:16;;;;;;;7.13;2.70;;;19.80;96.10;;;;;;5078281;28;20048;-59
2023/07/15 03:32:43;;;;;;;7.10;2.13;;;19.90;95.50;;;;;;5077898;28;20066;-58
2023/07/15 03:35:09;;;;;;;7.07;3.08;;;19.80;95.30;;;;;;5078801;28;20049;-59
2023/07/15 03:37:37;;;;;;;5.82;2.45;;;19.80;95.10;;;;;;5076956;28;20044;-58
2023/07/15 03:40:10;;;;;;;6.05;2.50;;;19.80;94.10;;;;;;5078756;28;20036;-58
2023/07/15 03:42:36;;;;;;;7.75;2.60;;;19.80;94.70;;;;;;5078153;28;20048;-59
2023/07/15 03:45:03;;;;;;;8.35;2.58;;;19.80;94.40;;;;;;5078384;28;20453;-59
2023/07/15 03:47:29;;;;;;;7.53;2.78;;;19.80;95.50;;;;;;5077912;28;20048;-59
2023/07/15 03:49:55;;;;;;;7.55;2.63;;;19.70;95.40;;;;;;5077599;28;20082;-59
2023/07/15 03:52:21;;;;;;;7.47;2.83;;;19.70;95.90;;;;;;5078248;28;20052;-58
2023/07/15 03:54:46;;;;;;;7.72;3.00;;;19.70;96.20;;;;;;5075895;28;20127;-58
2023/07/15 03:57:12;;;;;;;7.38;3.00;;;19.60;97.00;;;;;;5078273;28;20033;-59
2023/07/15 03:59:38;;;;;;;7.65;2.75;;;19.60;96.90;;;;;;5077563;28;20044;-59
2023/07/15 04:02:04;;;;;;;5.75;2.60;;;19.60;97.20;;;;;;5077908;28;20096;-59
2023/07/15 04:04:30;;;;;;;5.40;2.60;;;19.50;98.00;;;;;;5077942;28;20048;-59
2023/07/15 04:06:58;;;;;;;7.20;2.95;;;19.50;97.70;;;;;;5077058;28;20049;-58
2023/07/15 04:09:24;;;;;;;7.32;2.63;;;19.50;98.40;;;;;;5078039;28;20439;-59
2023/07/15 04:11:51;;;;;;;7.07;2.67;;;19.40;99.10;;;;;;5076748;28;20071;-59
2023/07/15 04:14:17;;;;;;;6.00;2.35;;;19.40;99.30;;;;;;5078197;28;20045;-59
2023/07/15 04:16:43;;;;;;;6.05;2.53;;;19.40;98.90;;;;;;5076073;28;20117;-59
2023/07/15 04:19:09;;;;;;;6.25;2.53;;;19.40;99.90;;;;;;5077801;28;20490;-59
2023/07/15 04:21:35;;;;;;;7.10;3.30;;;19.40;99.90;;;;;;5078205;28;20037;-59
2023/07/15 04:24:01;;;;;;;7.22;2.33;;;19.40;99.90;;;;;;5075459;28;20048;-59
2023/07/15 04:26:27;;;;;;;6.93;2.38;;;19.40;99.90;;;;;;5077347;28;20079;-58
2023/07/15 04:28:57;;;;;;;7.82;3.08;;;19.40;99.90;;;;;;5076638;28;20104;-59
2023/07/15 04:31:23;;;;;;;5.78;2.47;;;19.40;99.90;;;;;;5077965;28;20062;-58
2023/07/15 04:33:50;;;;;;;7.60;2.70;;;19.50;99.90;;;;;;5075581;28;20048;-59
2023/07/15 04:36:19;;;;;;;9.82;2.90;;;19.50;99.90;;;;;;5078070;28;20074;-59
2023/07/15 04:38:45;;;;;;;8.27;2.50;;;19.60;99.90;;;;;;5077585;28;20043;-59
2023/07/15 04:41:11;;;;;;;6.38;2.40;;;19.50;99.90;;;;;;5076763;28;20531;-59
2023/07/15 04:43:36;;;;;;;8.88;3.10;;;19.60;99.90;;;;;;5076865;28;20057;-59
2023/07/15 04:46:04;;;;;;;6.78;2.72;;;19.60;99.90;;;;;;5076765;28;20049;-59
2023/07/15 04:48:29;;;;;;;7.53;3.10;;;19.70;99.90;;;;;;5078090;28;20041;-59
2023/07/15 04:50:55;;;;;;;10.00;3.30;;;19.70;99.90;;;;;;5076525;28;20043;-59
2023/07/15 04:53:21;;;;;;;6.60;3.08;;;19.70;99.90;;;;;;5077260;28;20070;-59
2023/07/15 04:55:48;;;;;;;8.50;2.88;;;19.80;99.90;;;;;;5077384;28;20052;-58
2023/07/15 04:58:15;;;;;;;8.23;3.17;;;19.90;99.90;;;;;;5079365;28;20079;-58
2023/07/15 05:00:42;;;;;;;6.88;2.72;;;19.90;99.90;;;;;;5081763;28;20044;-59
2023/07/15 05:03:08;;;;;;;6.63;2.95;;;20.00;99.90;;;;;;5079078;28;20102;-59
2023/07/15 05:05:35;;;;;;;7.38;2.63;;;20.10;99.90;;;;;;5081749;28;20391;-59
2023/07/15 05:08:09;;;;;;;7.30;2.90;;;20.10;99.90;;;;;;5080214;28;20075;-59
2023/07/15 05:10:35;;;;;;;8.75;2.60;;;20.00;99.90;;;;;;5081416;28;20044;-59
2023/07/15 05:13:01;;;;;;;7.28;3.08;;;20.00;99.90;;;;;;5081323;28;20540;-59
2023/07/15 05:15:28;;;;;;;6.55;3.20;;;20.10;99.90;;;;;;5080605;28;20062;-59
2023/07/15 05:17:54;;;;;;;8.45;3.28;;;20.20;99.90;;;;;;5081454;28;20040;-59
2023/07/15 05:20:20;;;;;;;8.00;2.95;;;20.30;99.90;;;;;;5080021;28;20040;-59
2023/07/15 05:22:46;;;;;;;6.88;2.95;;;20.40;99.90;;;;;;5081201;28;20041;-59
2023/07/15 05:25:12;;;;;;;7.38;2.88;;;20.40;99.90;;;;;;5080160;28;20102;-59
2023/07/15 05:27:38;;;;;;;9.57;3.10;;;20.50;99.90;;;;;;5081106;28;20045;-58
2023/07/15 05:30:04;;;;;;;7.45;3.05;;;20.60;99.90;;;;;;5081021;28;20045;-59
2023/07/15 05:32:30;;;;;;;7.43;3.00;;;20.60;99.90;;;;;;5080083;28;20458;-57
2023/07/15 05:34:56;;;;;;;8.00;3.28;;;20.70;99.90;;;;;;5076138;28;20037;-56
2023/07/15 05:37:22;;;;;;;9.07;3.20;;;20.80;99.90;;;;;;5068142;28;20044;-59
2023/07/15 05:39:47;;;;;;;7.72;3.17;;;20.90;99.90;;;;;;5075209;28;20028;-58
2023/07/15 05:42:13;;;;;;;6.20;2.95;;;20.90;99.90;;;;;;5075895;28;20077;-59
2023/07/15 05:44:39;;;;;;;7.72;3.25;;;21.00;99.90;;;;;;5075479;28;20044;-59
2023/07/15 05:47:06;;;;;;;7.38;3.10;;;21.10;99.90;;;;;;5076524;28;20059;-59
2023/07/15 05:49:32;;;;;;;7.60;3.60;;;21.10;99.90;;;;;;5076159;28;20048;-59
2023/07/15 05:51:58;;;;;;;8.85;2.83;;;21.20;99.90;;;;;;5076690;28;20112;-59
2023/07/15 05:54:23;;;;;;;8.68;3.40;;;21.30;99.90;;;;;;5075484;28;20450;-58
2023/07/15 05:56:49;;;;;;;6.72;2.85;;;21.40;99.90;;;;;;5076567;28;20108;-59
2023/07/15 05:59:15;;;;;;;8.82;3.17;;;21.40;99.90;;;;;;5074317;28;20044;-58
2023/07/15 06:01:41;;;;;;;6.78;2.88;;;21.50;99.90;;;;;;5075423;28;20403;-59
2023/07/15 06:04:08;;;;;;;7.45;3.35;;;21.50;99.90;;;;;;5074135;28;20079;-59
2023/07/15 06:06:35;;;;;;;7.93;2.83;;;21.60;99.90;;;;;;5075154;28;20561;-58
2023/07/15 06:09:01;;;;;;;7.07;3.15;;;21.60;99.90;;;;;;5074066;28;20044;-59
2023/07/15 06:11:26;;;;;;;6.78;2.80;;;21.60;99.90;;;;;;5075232;28;20051;-59
2023/07/15 06:13:52;;;;;;;6.90;2.72;;;21.70;99.90;;;;;;5076344;28;20044;-59
2023/07/15 06:16:18;;;;;;;6.07;2.70;;;21.70;99.90;;;;;;5071802;28;20075;-59
2023/07/15 06:18:44;;;;;;;6.75;3.03;;;21.80;99.90;;;;;;5075686;28;20051;-59
2023/07/15 06:21:10;;;;;;;7.53;2.60;;;21.90;99.90;;;;;;5067143;28;20385;-58
2023/07/15 06:23:35;;;;;;;7.50;3.60;;;22.00;99.90;;;;;;5064510;28;20056;-58
2023/07/15 06:26:01;;;;;;;6.40;3.00;;;22.00;99.90;;;;;;5056054;28;20041;-59
2023/07/15 06:28:27;;;;;;;6.20;2.78;;;22.10;99.90;;;;;;5055218;28;20041;-59
2023/07/15 06:31:06;;;;;;;6.55;2.78;;;22.10;99.90;;;;;;5056527;28;20040;-59
2023/07/15 06:33:33;;;;;;;7.95;3.00;;;22.20;99.90;;;;;;5057133;28;20075;-59
2023/07/15 06:35:59;;;;;;;5.95;2.72;;;22.20;99.90;;;;;;5065022;28;20104;-59
2023/07/15 06:38:27;;;;;;;6.07;3.25;;;22.10;99.90;;;;;;5063518;28;20080;-59
2023/07/15 06:40:54;;;;;;;6.93;2.70;;;22.20;99.90;;;;;;5055633;28;20092;-58
2023/07/15 06:43:19;;;;;;;6.75;2.80;;;22.30;99.90;;;;;;5056202;28;20048;-59
2023/07/15 06:45:45;;;;;;;7.35;2.92;;;22.40;99.90;;;;;;5055012;28;20033;-59
2023/07/15 06:48:12;;;;;;;6.32;2.63;;;22.40;99.90;;;;;;5056444;28;20048;-59
2023/07/15 06:50:37;;;;;;;6.35;2.30;;;22.50;99.90;;;;;;5054880;28;20055;-59
2023/07/15 06:53:03;;;;;;;5.10;2.30;;;22.70;99.90;;;;;;5059647;28;20112;-59
2023/07/15 06:55:29;;;;;;;5.32;2.33;;;22.70;99.90;;;;;;5073975;28;20048;-59
2023/07/15 06:57:54;;;;;;;6.10;2.40;;;22.90;99.90;;;;;;5075296;28;20041;-60
2023/07/15 07:00:22;;;;;;;6.40;2.55;;;23.00;99.90;;;;;;5075894;28;20044;-59
2023/07/15 07:02:48;;;;;;;7.05;2.83;;;22.90;99.90;;;;;;5074542;28;20059;-59
2023/07/15 07:05:15;;;;;;;5.55;2.65;;;22.90;99.90;;;;;;5075804;28;20057;-59
2023/07/15 07:07:41;;;;;;;8.63;2.78;;;22.90;99.90;;;;;;5073773;28;20041;-59
2023/07/15 07:10:08;;;;;;;6.80;2.58;;;22.90;99.90;;;;;;5075507;28;20433;-59
2023/07/15 07:12:33;;;;;;;5.78;2.50;;;23.00;99.90;;;;;;5075489;28;20048;-59
2023/07/15 07:14:59;;;;;;;6.75;2.60;;;23.00;99.90;;;;;;5075086;28;20349;-59
2023/07/15 07:17:25;;;;;;;5.65;2.08;;;23.10;99.90;;;;;;5075557;28;20415;-59
2023/07/15 07:19:50;;;;;;;5.53;2.88;;;23.30;99.90;;;;;;5074590;28;20602;-59
2023/07/15 07:22:16;;;;;;;5.63;2.03;;;23.20;99.90;;;;;;5062436;28;20049;-59
2023/07/15 07:24:42;;;;;;;8.18;2.72;;;23.00;99.90;;;;;;5071663;28;20040;-60
2023/07/15 07:27:08;;;;;;;5.65;2.47;;;22.90;99.90;;;;;;5074354;28;20072;-60
2023/07/15 07:29:34;;;;;;;6.53;2.63;;;22.60;99.90;;;;;;5065987;28;20032;-59
2023/07/15 07:31:59;;;;;;;6.40;2.47;;;22.60;99.90;;;;;;5055104;28;20604;-60
2023/07/15 07:34:25;;;;;;;7.75;2.35;;;22.50;99.90;;;;;;5059710;28;20048;-60
2023/07/15 07:36:51;;;;;;;6.65;2.83;;;22.50;99.90;;;;;;5065974;28;20131;-60
2023/07/15 07:39:17;;;;;;;5.90;2.35;;;22.60;99.90;;;;;;5055340;28;20052;-59
2023/07/15 07:41:42;;;;;;;5.97;2.30;;;22.80;99.90;;;;;;5053466;28;20049;-60
2023/07/15 07:44:09;;;;;;;5.70;2.35;;;22.90;99.90;;;;;;5058647;28;20108;-60
2023/07/15 07:46:35;;;;;;;6.82;2.70;;;22.80;99.90;;;;;;5071008;28;20080;-58
2023/07/15 07:49:00;;;;;;;6.43;2.60;;;22.90;99.90;;;;;;5057753;28;20045;-60
2023/07/15 07:51:26;;;;;;;8.48;2.50;;;23.00;99.90;;;;;;5070174;28;20070;-58
2023/07/15 07:53:52;;;;;;;5.63;2.28;;;23.00;99.90;;;;;;5059283;28;20047;-58
2023/07/15 07:56:18;;;;;;;6.97;2.50;;;23.20;99.90;;;;;;5066461;28;20036;-57
2023/07/15 07:58:44;;;;;;;5.70;2.40;;;23.00;99.90;;;;;;5055754;28;20104;-58
2023/07/15 08:01:10;;;;;;;6.35;2.30;;;23.20;99.90;;;;;;5054696;28;20112;-57
2023/07/15 08:03:36;;;;;;;5.72;2.10;;;23.30;99.90;;;;;;5059627;28;20092;-58
2023/07/15 08:06:04;;;;;;;5.55;1.90;;;23.30;99.90;;;;;;5070514;28;20083;-59
2023/07/15 08:08:30;;;;;;;6.72;2.22;;;23.40;99.90;;;;;;5073179;28;20051;-59
2023/07/15 08:10:56;;;;;;;5.68;2.38;;;23.60;99.10;;;;;;5073046;28;20040;-59
2023/07/15 08:13:22;;;;;;;6.15;2.08;;;23.50;97.90;;;;;;5072634;28;20060;-60
2023/07/15 08:15:47;;;;;;;5.88;2.10;;;23.50;97.60;;;;;;5073404;28;20426;-60
2023/07/15 08:18:13;;;;;;;7.10;2.15;;;23.60;97.20;;;;;;5072930;28;20044;-60
2023/07/15 08:20:42;;;;;;;5.80;1.90;;;23.50;97.00;;;;;;5073211;28;20076;-59
2023/07/15 08:23:08;;;;;;;5.20;2.17;;;23.40;96.80;;;;;;5073773;28;20056;-60
2023/07/15 08:25:36;;;;;;;6.38;2.10;;;23.50;98.40;;;;;;5065007;28;20055;-59
2023/07/15 08:28:01;;;;;;;7.70;1.98;;;23.50;97.50;;;;;;5062550;28;20044;-60
2023/07/15 08:30:27;;;;;;;6.88;2.55;;;23.60;97.90;;;;;;5073239;28;20052;-60
2023/07/15 08:32:53;;;;;;;6.97;2.00;;;23.50;96.90;;;;;;5072529;28;20059;-58
2023/07/15 08:35:18;;;;;;;5.35;1.90;;;23.40;97.50;;;;;;5074366;28;20043;-58
2023/07/15 08:37:44;;;;;;;4.47;1.67;;;23.40;97.90;;;;;;5073040;28;20066;-58
2023/07/15 08:40:13;;;;;;;4.95;1.60;;;23.40;97.90;;;;;;5072939;28;20053;-59
2023/07/15 08:42:40;;;;;;;4.68;1.50;;;23.60;98.80;;;;;;5074238;28;20033;-58
2023/07/15 08:45:06;;;;;;;4.90;1.60;;;23.70;97.60;;;;;;5073395;28;20044;-60
2023/07/15 08:47:32;;;;;;;5.50;1.83;;;23.70;97.60;;;;;;5073924;28;20055;-60
2023/07/15 08:50:02;;;;;;;4.38;1.67;;;23.80;97.30;;;;;;5073242;28;20136;-60
2023/07/15 08:52:30;;;;;;;4.80;1.80;;;23.90;96.60;;;;;;5077712;28;20040;-57
2023/07/15 08:54:55;;;;;;;4.30;1.67;;;23.90;95.50;;;;;;5076545;28;20069;-60
2023/07/15 08:57:22;;;;;;;5.00;1.50;;;24.10;96.40;;;;;;5077130;28;20051;-60
2023/07/15 08:59:56;;;;;;;4.55;1.73;;;24.20;96.40;;;;;;5077523;28;20044;-60
2023/07/15 09:02:22;;;;;;;4.07;1.58;;;24.20;94.40;;;;;;5077108;28;20040;-59
2023/07/15 09:04:48;;;;;;;5.75;1.70;;;24.30;94.40;;;;;;5076375;28;20459;-57
2023/07/15 09:07:14;;;;;;;5.43;1.75;;;24.50;95.20;;;;;;5076232;28;20075;-60
2023/07/15 09:09:40;;;;;;;3.45;1.20;;;24.50;92.50;;;;;;5073729;28;20430;-57
2023/07/15 09:12:11;;;;;;;4.00;1.40;;;24.90;91.60;;;;;;5066929;28;20136;-57
2023/07/15 09:14:46;;;;;;;6.22;1.58;;;24.90;90.20;;;;;;5069246;28;20051;-58
2023/07/15 09:17:16;;;;;;;6.20;1.48;;;24.90;91.00;;;;;;5058084;28;20037;-58
2023/07/15 09:19:43;;;;;;;4.07;1.40;;;24.60;88.60;;;;;;5065727;28;20052;-58
2023/07/15 09:22:09;;;;;;;4.57;1.48;;;24.20;85.50;;;;;;5066090;28;20044;-58
2023/07/15 09:24:39;;;;;;;5.57;1.65;;;24.10;87.90;;;;;;5066501;28;20086;-58
2023/07/15 09:27:06;;;;;;;4.93;1.40;;;23.90;90.20;;;;;;5064866;28;20132;-58
2023/07/15 09:29:32;;;;;;;4.15;1.42;;;23.90;90.50;;;;;;5068069;28;20040;-57
2023/07/15 09:31:58;;;;;;;5.78;1.50;;;23.90;91.50;;;;;;5056002;28;20045;-57
2023/07/15 09:34:24;;;;;;;5.75;1.50;;;24.00;91.20;;;;;;5063801;28;20068;-58
2023/07/15 09:36:54;;;;;;;3.83;1.38;;;23.80;90.80;;;;;;5065819;28;20052;-57
2023/07/15 09:39:22;;;;;;;3.67;1.30;;;23.60;91.50;;;;;;5057347;28;20041;-58
2023/07/15 09:42:05;;;;;;;4.20;1.40;;;23.40;91.70;;;;;;5056071;28;20048;-58
2023/07/15 09:44:37;;;;;;;3.88;1.35;;;23.40;92.60;;;;;;5072040;28;20063;-58
2023/07/15 09:47:03;;;;;;;4.97;1.60;;;23.40;92.90;;;;;;5063819;28;20045;-58
2023/07/15 09:49:29;;;;;;;3.42;1.27;;;23.50;92.80;;;;;;5072154;28;20068;-58
2023/07/15 09:51:57;;;;;;;3.50;1.45;;;23.70;92.20;;;;;;5067507;28;20067;-58
2023/07/15 09:54:25;;;;;;;4.30;1.33;;;23.80;92.00;;;;;;5074418;28;20048;-57
2023/07/15 09:56:56;;;;;;;4.10;1.20;;;23.90;91.30;;;;;;5081428;28;20101;-58
2023/07/15 09:59:24;;;;;;;4.05;1.52;;;23.90;92.10;;;;;;5067271;28;20052;-58
2023/07/15 10:01:58;;;;;;;3.22;1.30;;;24.10;88.70;;;;;;5060357;28;20037;-58
2023/07/15 10:04:34;;;;;;;6.18;1.58;;;24.00;88.60;;;;;;5063560;28;20057;-58
2023/07/15 10:07:02;;;;;;;3.88;1.35;;;23.80;90.20;;;;;;5075827;28;20703;-58
2023/07/15 10:09:30;;;;;;;4.35;1.40;;;24.10;90.90;;;;;;5061071;28;20037;-58
2023/07/15 10:11:56;;;;;;;5.47;1.45;;;24.20;90.20;;;;;;5059311;28;20045;-58
2023/07/15 10:14:22;;;;;;;3.80;1.38;;;24.50;91.00;;;;;;5060197;28;20045;-58
2023/07/15 10:17:20;;;;;;;3.47;1.25;;;24.70;91.00;;;;;;5059814;28;20049;-56
2023/07/15 10:19:50;;;;;;;4.50;1.30;;;24.50;87.50;;;;;;5047029;28;20087;-57
2023/07/15 10:22:21;;;;;;;5.47;1.88;;;24.70;91.00;;;;;;5060435;28;20044;-58
2023/07/15 10:24:57;;;;;;;4.38;1.50;;;25.00;91.70;;;;;;5059001;28;20045;-58
2023/07/15 10:27:30;;;;;;;5.35;1.70;;;25.30;90.90;;;;;;5066799;28;20404;-58
2023/07/15 10:30:16;;;;;;;4.80;1.80;;;25.40;90.80;;;;;;5072963;28;20080;-57
2023/07/15 10:33:05;;;;;;;7.25;1.95;;;25.40;90.60;;;;;;5062127;28;20049;-58
2023/07/15 10:35:39;;;;;;;5.63;2.10;;;25.20;86.90;;;;;;5072053;28;20056;-58
2023/07/15 10:38:23;;;;;;;5.00;1.60;;;25.40;88.20;;;;;;5079249;28;20044;-58
2023/07/15 10:40:57;;;;;;;4.78;1.60;;;25.20;89.30;;;;;;5079769;28;20098;-58
2023/07/15 10:43:34;;;;;;;4.72;1.75;;;25.10;89.20;;;;;;5072610;28;20040;-59
2023/07/15 10:46:11;;;;;;;5.25;1.83;;;24.50;86.20;;;;;;5057132;28;20079;-59
2023/07/15 10:48:38;;;;;;;5.20;1.75;;;24.60;90.90;;;;;;5063785;28;20028;-58
2023/07/15 10:51:07;;;;;;;4.47;1.83;;;24.60;91.80;;;;;;5064275;28;20037;-59
2023/07/15 10:53:33;;;;;;;4.68;1.85;;;24.60;92.20;;;;;;5070525;28;20052;-60
2023/07/15 10:56:03;;;;;;;6.10;2.08;;;24.90;92.40;;;;;;5061287;28;20047;-60
2023/07/15 10:58:32;;;;;;;5.32;2.35;;;25.20;91.20;;;;;;5058500;28;20049;-60
2023/07/15 11:01:09;;;;;;;5.10;1.90;;;25.00;90.70;;;;;;5059641;28;20037;-59
2023/07/15 11:03:37;;;;;;;4.82;1.70;;;25.00;90.00;;;;;;5058776;28;20105;-60
2023/07/15 11:06:03;;;;;;;5.95;2.35;;;25.10;91.00;;;;;;5059758;28;20045;-59
2023/07/15 11:08:30;;;;;;;8.88;2.58;;;25.00;93.00;;;;;;5059016;28;20420;-60
2023/07/15 11:11:00;;;;;;;4.43;1.88;;;24.80;92.00;;;;;;5058658;28;20153;-60
2023/07/15 11:13:27;;;;;;;5.53;2.17;;;25.00;92.30;;;;;;5059526;28;20041;-60
2023/07/15 11:15:54;;;;;;;5.68;2.10;;;25.40;91.20;;;;;;5058297;28;20040;-60
2023/07/15 11:18:21;;;;;;;6.65;2.47;;;25.80;91.00;;;;;;5059389;28;20055;-59
2023/07/15 11:20:49;;;;;;;5.05;1.63;;;25.90;84.60;;;;;;5058314;28;20440;-58
2023/07/15 11:23:15;;;;;;;5.68;1.98;;;25.50;86.20;;;;;;5058755;28;20053;-59
2023/07/15 11:25:41;;;;;;;5.55;1.90;;;25.50;87.20;;;;;;5058940;28;20051;-62
2023/07/15 11:28:08;;;;;;;7.40;2.20;;;25.70;89.00;;;;;;5058563;28;20131;-61
2023/07/15 11:30:53;;;;;;;4.65;1.63;;;25.50;86.00;;;;;;5059156;28;20079;-61
2023/07/15 11:33:18;;;;;;;5.50;1.98;;;25.40;88.40;;;;;;5057741;28;20045;-60
2023/07/15 11:35:45;;;;;;;4.65;2.20;;;25.50;90.40;;;;;;5058442;28;20086;-61
2023/07/15 11:38:11;;;;;;;6.10;2.00;;;25.40;89.20;;;;;;5058270;28;20072;-60
2023/07/15 11:40:48;;;;;;;6.00;2.15;;;25.50;91.20;;;;;;5058592;28;20048;-61
2023/07/15 11:43:16;;;;;;;6.38;2.20;;;25.50;91.80;;;;;;5058948;28;20049;-60
2023/07/15 11:45:41;;;;;;;6.10;2.28;;;25.70;92.40;;;;;;5056606;28;20045;-61
2023/07/15 11:48:07;;;;;;;6.35;2.58;;;25.50;90.50;;;;;;5063596;28;20052;-61
2023/07/15 11:50:35;;;;;;;6.80;2.50;;;25.60;91.00;;;;;;5066221;28;20068;-60
2023/07/15 11:53:00;;;;;;;5.97;2.25;;;25.70;91.90;;;;;;5064424;28;20040;-61
2023/07/15 11:55:27;;;;;;;6.63;2.00;;;25.60;90.00;;;;;;5071388;28;20630;-61
2023/07/15 11:57:53;;;;;;;5.20;1.75;;;25.40;90.60;;;;;;5062853;28;20076;-60
2023/07/15 12:00:36;;;;;;;6.85;2.40;;;25.50;91.90;;;;;;5061760;28;20051;-59
2023/07/15 12:03:11;;;;;;;5.15;2.03;;;25.20;92.30;;;;;;5076248;28;20816;-61
2023/07/15 12:05:40;;;;;;;6.38;2.35;;;25.20;93.10;;;;;;5077528;28;20066;-61
2023/07/15 12:08:12;;;;;;;4.93;2.00;;;25.00;94.50;;;;;;5076544;28;20208;-61
2023/07/15 12:11:04;;;;;;;5.03;2.08;;;25.00;97.70;;;;;;5077387;28;20044;-61
2023/07/15 12:13:29;;;;;;;;;;;25.00;98.70;;;;;;5076374;28;20045;-61
2023/07/15 12:15:55;;;;;;;4.57;2.17;;;24.80;96.80;;;;;;5076583;28;19970;-61
2023/07/15 12:18:20;;;;;;;5.82;2.35;;;24.90;98.80;;;;;;5077781;28;20040;-60
2023/07/15 12:20:46;;;;;;;6.80;2.70;;;25.00;97.20;;;;;;5077137;28;20052;-60
2023/07/15 12:23:12;;;;;;;5.28;2.42;;;24.90;96.70;;;;;;5077250;28;20072;-61
2023/07/15 12:25:37;;;;;;;6.53;2.67;;;24.80;97.80;;;;;;5077804;28;20056;-60
2023/07/15 12:28:03;;;;;;;5.40;2.10;;;24.60;97.40;;;;;;5077071;28;20067;-60
2023/07/15 12:30:29;;;;;;;5.82;2.35;;;24.60;98.50;;;;;;5078458;28;20040;-61
2023/07/15 12:32:54;;;;;;;7.63;2.50;;;24.50;99.00;;;;;;5076822;28;20108;-60
2023/07/15 12:35:20;;;;;;;4.80;2.20;;;24.50;98.60;;;;;;5069279;28;20041;-60
2023/07/15 12:37:46;;;;;;;6.40;2.22;;;24.40;98.60;;;;;;5068585;28;20049;-60
2023/07/15 12:40:12;;;;;;;5.78;2.22;;;24.30;99.90;;;;;;5061631;28;20049;-60
2023/07/15 12:42:39;;;;;;;5.88;2.38;;;24.30;99.90;;;;;;5057986;28;20045;-60
2023/07/15 12:45:05;;;;;;;4.97;2.08;;;24.50;99.40;;;;;;5057666;28;20041;-60
2023/07/15 12:47:30;;;;;;;5.72;1.90;;;24.90;97.20;;;;;;5061029;28;20041;-59
2023/07/15 12:49:57;;;;;;;4.75;1.90;;;25.20;97.80;;;;;;5067471;28;20105;-60